Time;durP1;ratioP1;P1;durP2;ratioP2;P2;SDS_P1;SDS_P2;PMS_P1;PMS_P2;Temp;Humidity;BMP_temperature;BMP_pressure;BME280_temperature;BME280_humidity;BME280_pressure;Samples;Min_cycle;Max_cycle;Signal;HPM_P1;HPM_P2
2021/11/29 00:00:51;;;;;;;14.48;11.57;;;4.40;99.90;;;;;;2071358;28;20025;-69
2021/11/29 00:01:56;;;;;;;16.60;11.38;;;4.30;99.90;;;;;;2072068;28;20022;-69
2021/11/29 00:03:01;;;;;;;15.30;11.50;;;4.30;99.90;;;;;;2072085;28;20022;-69
2021/11/29 00:04:02;;;;;;;14.40;11.18;;;4.30;99.90;;;;;;2071954;28;20360;-69
2021/11/29 00:05:03;;;;;;;11.15;10.00;;;4.30;99.90;;;;;;2072773;28;20026;-69
2021/11/29 00:06:04;;;;;;;14.82;11.07;;;4.30;99.90;;;;;;2072313;28;20035;-69
2021/11/29 00:07:05;;;;;;;12.48;10.52;;;4.30;99.90;;;;;;2072148;28;20034;-69
2021/11/29 00:08:06;;;;;;;12.00;10.35;;;4.20;99.90;;;;;;2072271;28;20022;-69
2021/11/29 00:09:06;;;;;;;10.65;9.52;;;4.20;99.90;;;;;;2074550;28;20125;-68
2021/11/29 00:10:08;;;;;;;13.00;9.98;;;4.20;99.90;;;;;;2072095;28;20084;-68
2021/11/29 00:11:08;;;;;;;20.92;11.68;;;4.20;99.90;;;;;;2071642;28;20029;-69
2021/11/29 00:12:09;;;;;;;11.43;9.48;;;4.20;99.90;;;;;;2072709;28;20029;-69
2021/11/29 00:13:10;;;;;;;13.05;11.02;;;4.20;99.90;;;;;;2070394;28;20026;-69
2021/11/29 00:14:11;;;;;;;11.02;8.90;;;4.20;99.90;;;;;;2070729;28;20037;-69
2021/11/29 00:15:12;;;;;;;12.77;9.82;;;4.20;99.90;;;;;;2071996;28;20040;-68
2021/11/29 00:16:13;;;;;;;12.45;10.35;;;4.20;99.90;;;;;;2072045;28;20458;-69
2021/11/29 00:17:14;;;;;;;10.88;9.70;;;4.10;99.90;;;;;;2072334;28;20437;-68
2021/11/29 00:18:15;;;;;;;12.15;9.80;;;4.20;99.90;;;;;;2071636;28;20370;-68
2021/11/29 00:19:15;;;;;;;11.90;9.80;;;4.20;99.90;;;;;;2072010;28;20869;-68
2021/11/29 00:20:17;;;;;;;16.17;9.43;;;4.10;99.90;;;;;;2071744;28;20029;-69
2021/11/29 00:21:18;;;;;;;10.32;9.23;;;4.10;99.90;;;;;;2072670;28;20026;-69
2021/11/29 00:22:19;;;;;;;14.27;10.43;;;4.10;99.90;;;;;;2072247;28;20052;-68
2021/11/29 00:23:19;;;;;;;11.23;9.48;;;4.10;99.90;;;;;;2072564;28;20065;-68
2021/11/29 00:24:20;;;;;;;12.35;9.27;;;4.10;99.90;;;;;;2072380;28;20022;-68
2021/11/29 00:25:20;;;;;;;13.85;9.85;;;4.10;99.90;;;;;;2072450;28;20046;-68
2021/11/29 00:26:22;;;;;;;13.15;9.65;;;4.10;99.90;;;;;;2072327;28;20481;-69
2021/11/29 00:27:23;;;;;;;12.88;9.70;;;4.00;99.90;;;;;;2072573;28;20029;-68
2021/11/29 00:28:23;;;;;;;12.77;10.15;;;4.00;99.90;;;;;;2071281;28;20109;-68
2021/11/29 00:29:24;;;;;;;11.68;9.20;;;4.00;99.90;;;;;;2072461;28;20061;-68
2021/11/29 00:30:25;;;;;;;13.93;9.93;;;4.00;99.90;;;;;;2071880;28;20022;-68
2021/11/29 00:31:26;;;;;;;10.75;9.38;;;4.00;99.90;;;;;;2072017;28;20109;-68
2021/11/29 00:32:26;;;;;;;11.75;9.02;;;3.90;99.90;;;;;;2072260;28;20029;-69
2021/11/29 00:33:27;;;;;;;11.43;9.30;;;3.90;99.90;;;;;;2072121;28;20028;-68
2021/11/29 00:34:28;;;;;;;13.63;9.18;;;3.90;99.90;;;;;;2072563;28;20041;-68
2021/11/29 00:35:28;;;;;;;13.65;10.23;;;3.90;99.90;;;;;;2072021;28;20374;-68
2021/11/29 00:36:29;;;;;;;10.02;8.73;;;3.90;99.90;;;;;;2071705;28;20064;-68
2021/11/29 00:37:30;;;;;;;10.93;8.65;;;3.90;99.90;;;;;;2071362;28;20038;-68
2021/11/29 00:38:30;;;;;;;11.57;8.77;;;3.80;99.90;;;;;;2071684;28;20101;-68
2021/11/29 00:39:31;;;;;;;12.77;9.38;;;3.80;99.90;;;;;;2072198;28;20422;-68
2021/11/29 00:40:33;;;;;;;10.65;7.97;;;3.80;99.90;;;;;;2071878;28;20018;-68
2021/11/29 00:41:34;;;;;;;11.68;9.27;;;3.80;99.90;;;;;;2072054;28;20030;-68
2021/11/29 00:42:35;;;;;;;10.80;9.70;;;3.80;99.90;;;;;;2072063;28;20068;-68
2021/11/29 00:43:36;;;;;;;14.15;9.88;;;3.80;99.90;;;;;;2072062;28;20026;-68
2021/11/29 00:44:36;;;;;;;14.23;9.15;;;3.80;99.90;;;;;;2072765;28;20100;-68
2021/11/29 00:45:37;;;;;;;12.07;9.25;;;3.80;99.90;;;;;;2072105;28;20026;-68
2021/11/29 00:46:37;;;;;;;12.20;9.18;;;3.80;99.90;;;;;;2072792;28;20018;-68
2021/11/29 00:47:39;;;;;;;10.63;9.50;;;3.80;99.90;;;;;;2079028;28;20022;-68
2021/11/29 00:48:39;;;;;;;13.65;8.55;;;3.70;99.90;;;;;;2072288;28;20022;-68
2021/11/29 00:49:41;;;;;;;12.32;9.13;;;3.70;99.90;;;;;;2072223;28;20025;-68
2021/11/29 00:50:41;;;;;;;13.95;8.95;;;3.70;99.90;;;;;;2071847;28;20076;-68
2021/11/29 00:51:42;;;;;;;9.80;8.80;;;3.70;99.90;;;;;;2072172;28;20087;-68
2021/11/29 00:52:43;;;;;;;13.68;10.00;;;3.70;99.90;;;;;;2072180;28;20064;-68
2021/11/29 00:53:46;;;;;;;10.88;9.57;;;3.70;99.90;;;;;;2072367;28;20032;-68
2021/11/29 00:54:47;;;;;;;11.50;8.55;;;3.70;99.90;;;;;;2072224;28;20462;-68
2021/11/29 00:55:47;;;;;;;14.43;9.18;;;3.60;99.90;;;;;;2071621;28;20384;-68
2021/11/29 00:56:48;;;;;;;11.93;9.40;;;3.60;99.90;;;;;;2072228;28;20038;-68
2021/11/29 00:57:49;;;;;;;13.48;8.95;;;3.60;99.90;;;;;;2071922;28;20045;-68
2021/11/29 00:58:49;;;;;;;15.07;10.38;;;3.60;99.90;;;;;;2072139;28;20125;-68
2021/11/29 00:59:50;;;;;;;10.43;8.80;;;3.60;99.90;;;;;;2072074;28;20033;-68
2021/11/29 01:00:51;;;;;;;13.75;10.07;;;3.60;99.90;;;;;;2071732;28;20029;-68
2021/11/29 01:01:52;;;;;;;12.82;8.73;;;3.60;99.90;;;;;;2072184;28;20462;-68
2021/11/29 01:02:53;;;;;;;14.25;9.63;;;3.50;99.90;;;;;;2071989;28;20030;-68
2021/11/29 01:03:53;;;;;;;11.88;8.55;;;3.60;99.90;;;;;;2071803;28;20025;-68
2021/11/29 01:04:54;;;;;;;10.48;8.10;;;3.50;99.90;;;;;;2072336;28;20022;-68
2021/11/29 01:05:55;;;;;;;13.85;8.80;;;3.50;99.90;;;;;;2071897;28;20022;-68
2021/11/29 01:06:56;;;;;;;13.65;9.02;;;3.50;99.90;;;;;;2072089;28;20088;-68
2021/11/29 01:07:57;;;;;;;10.43;8.85;;;3.50;99.90;;;;;;2071690;28;20042;-68
2021/11/29 01:08:58;;;;;;;12.35;8.50;;;3.50;99.90;;;;;;2072248;28;20030;-68
2021/11/29 01:09:58;;;;;;;11.02;8.25;;;3.40;99.90;;;;;;2067698;28;20030;-68
2021/11/29 01:10:59;;;;;;;12.23;9.48;;;3.40;99.90;;;;;;2071081;28;20022;-68
2021/11/29 01:12:00;;;;;;;13.48;9.20;;;3.40;99.90;;;;;;2072283;28;20036;-68
2021/11/29 01:13:01;;;;;;;9.18;7.68;;;3.40;99.90;;;;;;2071208;28;20061;-68
2021/11/29 01:14:01;;;;;;;15.02;9.25;;;3.40;99.90;;;;;;2071511;28;20033;-68
2021/11/29 01:15:05;;;;;;;14.75;8.77;;;3.40;99.90;;;;;;2071632;28;20109;-68
2021/11/29 01:16:07;;;;;;;11.77;8.75;;;3.40;99.90;;;;;;2072041;28;20145;-68
2021/11/29 01:17:10;;;;;;;10.43;8.10;;;3.40;99.90;;;;;;2071581;28;20036;-68
2021/11/29 01:18:11;;;;;;;14.48;9.18;;;3.40;99.90;;;;;;2071943;28;20032;-68
2021/11/29 01:19:12;;;;;;;11.82;8.23;;;3.40;99.90;;;;;;2071749;28;20018;-68
2021/11/29 01:20:14;;;;;;;12.95;9.15;;;3.30;99.90;;;;;;2072119;28;20061;-68
2021/11/29 01:21:15;;;;;;;12.80;8.23;;;3.40;99.90;;;;;;2071083;28;20077;-68
2021/11/29 01:22:15;;;;;;;8.65;7.70;;;3.40;99.90;;;;;;2072206;28;20076;-68
2021/11/29 01:23:19;;;;;;;15.20;8.98;;;3.30;99.90;;;;;;2071633;28;20511;-68
2021/11/29 01:24:19;;;;;;;14.18;9.32;;;3.30;99.90;;;;;;2071723;28;20034;-68
2021/11/29 01:25:20;;;;;;;11.43;8.73;;;3.30;99.90;;;;;;2070973;28;20061;-68
2021/11/29 01:26:21;;;;;;;10.93;8.30;;;3.30;99.90;;;;;;2071026;28;20092;-69
2021/11/29 01:27:21;;;;;;;12.80;9.23;;;3.30;99.90;;;;;;2071648;28;20021;-68
2021/11/29 01:28:22;;;;;;;14.70;9.07;;;3.30;99.90;;;;;;2072158;28;20469;-68
2021/11/29 01:29:23;;;;;;;12.38;8.63;;;3.30;99.90;;;;;;2071893;28;20029;-68
2021/11/29 01:30:24;;;;;;;13.85;9.90;;;3.20;99.90;;;;;;2071552;28;20459;-68
2021/11/29 01:31:24;;;;;;;11.52;8.63;;;3.20;99.90;;;;;;2071658;28;20739;-68
2021/11/29 01:32:25;;;;;;;11.35;8.93;;;3.20;99.90;;;;;;2071995;28;20030;-68
2021/11/29 01:33:26;;;;;;;11.55;8.68;;;3.20;99.90;;;;;;2069608;28;20549;-69
2021/11/29 01:34:26;;;;;;;13.88;9.05;;;3.20;99.90;;;;;;2068655;28;20545;-68
2021/11/29 01:35:27;;;;;;;13.00;8.55;;;3.20;99.90;;;;;;2071875;28;20010;-68
2021/11/29 01:36:28;;;;;;;10.45;8.73;;;3.20;99.90;;;;;;2071313;28;20485;-68
2021/11/29 01:37:29;;;;;;;12.60;8.93;;;3.20;99.90;;;;;;2071437;28;20386;-68
2021/11/29 01:38:29;;;;;;;11.93;9.43;;;3.20;99.90;;;;;;2071934;28;20031;-68
2021/11/29 01:39:31;;;;;;;12.15;8.85;;;3.10;99.90;;;;;;2071816;28;20018;-68
2021/11/29 01:40:32;;;;;;;11.88;8.57;;;3.10;99.90;;;;;;2070679;28;20044;-68
2021/11/29 01:41:33;;;;;;;10.27;8.70;;;3.10;99.90;;;;;;2071462;28;20037;-68
2021/11/29 01:42:34;;;;;;;14.35;9.15;;;3.10;99.90;;;;;;2071993;28;20097;-68
2021/11/29 01:43:35;;;;;;;10.15;7.93;;;3.10;99.90;;;;;;2071671;28;20025;-68
2021/11/29 01:44:37;;;;;;;16.20;9.27;;;3.10;99.90;;;;;;2071827;28;20092;-68
2021/11/29 01:45:46;;;;;;;10.35;8.65;;;3.10;99.90;;;;;;2071321;28;20030;-68
2021/11/29 01:46:47;;;;;;;13.67;8.83;;;3.10;99.90;;;;;;2073073;28;20033;-68
2021/11/29 01:47:47;;;;;;;12.27;8.80;;;3.00;99.90;;;;;;2076561;28;20773;-68
2021/11/29 01:48:48;;;;;;;14.40;8.52;;;3.10;99.90;;;;;;2071961;28;20029;-68
2021/11/29 01:49:48;;;;;;;10.98;7.82;;;3.00;99.90;;;;;;2071770;28;20057;-68
2021/11/29 01:50:52;;;;;;;12.02;8.52;;;3.00;99.90;;;;;;2070917;28;20301;-68
2021/11/29 01:51:53;;;;;;;11.77;8.48;;;3.00;99.90;;;;;;2071647;28;20036;-68
2021/11/29 01:52:54;;;;;;;12.68;8.50;;;3.00;99.90;;;;;;2071500;28;20037;-69
2021/11/29 01:53:54;;;;;;;11.30;7.95;;;3.00;99.90;;;;;;2071397;28;20057;-68
2021/11/29 01:54:55;;;;;;;11.60;8.27;;;3.00;99.90;;;;;;2071947;28;20537;-68
2021/11/29 01:55:59;;;;;;;12.27;8.00;;;3.00;99.90;;;;;;2071578;28;20033;-68
2021/11/29 01:57:00;;;;;;;11.98;8.30;;;3.00;99.90;;;;;;2071043;28;20033;-68
2021/11/29 01:58:01;;;;;;;11.73;8.10;;;3.00;99.90;;;;;;2070923;28;20041;-68
2021/11/29 01:59:01;;;;;;;14.38;8.70;;;2.90;99.90;;;;;;2071453;28;20033;-68
2021/11/29 02:00:04;;;;;;;12.95;8.32;;;2.90;99.90;;;;;;2071634;28;20022;-68
2021/11/29 02:01:11;;;;;;;13.02;8.10;;;2.90;99.90;;;;;;2071026;28;20017;-68
2021/11/29 02:02:12;;;;;;;10.75;7.22;;;2.90;99.90;;;;;;2071571;28;20026;-68
2021/11/29 02:03:14;;;;;;;10.60;7.75;;;2.90;99.90;;;;;;2071888;28;20029;-68
2021/11/29 02:04:15;;;;;;;9.85;7.30;;;2.90;99.90;;;;;;2071601;28;20399;-68
2021/11/29 02:05:18;;;;;;;12.30;7.97;;;2.90;99.90;;;;;;2071642;28;20026;-68
2021/11/29 02:06:18;;;;;;;13.85;8.30;;;2.90;99.90;;;;;;2071342;28;20022;-68
2021/11/29 02:07:20;;;;;;;13.68;8.48;;;2.80;99.90;;;;;;2071220;28;20026;-68
2021/11/29 02:08:21;;;;;;;10.43;7.50;;;2.80;99.90;;;;;;2071195;28;20105;-68
2021/11/29 02:09:22;;;;;;;13.43;8.15;;;2.80;99.90;;;;;;2071497;28;20034;-68
2021/11/29 02:10:24;;;;;;;11.50;7.35;;;2.80;99.90;;;;;;2066359;28;20016;-68
2021/11/29 02:11:26;;;;;;;9.25;7.18;;;2.80;99.90;;;;;;2071577;28;20482;-71
2021/11/29 02:12:26;;;;;;;12.50;8.20;;;2.80;99.90;;;;;;2071298;28;20029;-68
2021/11/29 02:13:28;;;;;;;11.18;7.97;;;2.80;99.90;;;;;;2071411;28;20022;-68
2021/11/29 02:14:28;;;;;;;11.77;8.70;;;2.80;99.90;;;;;;2071768;28;20494;-68
2021/11/29 02:15:29;;;;;;;11.30;7.95;;;2.80;99.90;;;;;;2071310;28;20382;-68
2021/11/29 02:16:30;;;;;;;11.90;7.72;;;2.80;99.90;;;;;;2071721;28;20092;-68
2021/11/29 02:17:31;;;;;;;10.65;8.10;;;2.80;99.90;;;;;;2071239;28;20030;-68
2021/11/29 02:18:34;;;;;;;11.50;7.82;;;2.80;99.90;;;;;;2071504;28;20022;-68
2021/11/29 02:19:46;;;;;;;14.30;7.97;;;2.80;99.90;;;;;;2071554;28;20042;-68
2021/11/29 02:21:14;;;;;;;13.73;8.18;;;2.80;99.90;;;;;;2071091;28;20064;-72
2021/11/29 02:22:14;;;;;;;13.63;8.48;;;2.70;99.90;;;;;;2071259;28;20044;-68
2021/11/29 02:23:15;;;;;;;14.73;7.93;;;2.70;99.90;;;;;;2071390;28;20462;-68
2021/11/29 02:24:17;;;;;;;10.40;8.25;;;2.70;99.90;;;;;;2071739;28;20034;-68
2021/11/29 02:25:19;;;;;;;11.38;7.55;;;2.70;99.90;;;;;;2071630;28;20029;-68
2021/11/29 02:26:23;;;;;;;10.57;7.60;;;2.70;99.90;;;;;;2071480;28;20113;-68
2021/11/29 02:27:23;;;;;;;9.73;7.40;;;2.70;99.90;;;;;;2063176;28;20023;-68
2021/11/29 02:28:24;;;;;;;14.73;7.93;;;2.70;99.90;;;;;;2069104;28;20056;-68
2021/11/29 02:29:25;;;;;;;9.60;7.07;;;2.70;99.90;;;;;;2071250;28;20108;-68
2021/11/29 02:30:27;;;;;;;10.95;7.78;;;2.70;99.90;;;;;;2070200;28;20501;-68
2021/11/29 02:31:32;;;;;;;9.93;7.47;;;2.70;99.90;;;;;;2070542;28;20026;-68
2021/11/29 02:32:32;;;;;;;12.55;8.20;;;2.70;99.90;;;;;;2071684;28;20045;-68
2021/11/29 02:33:33;;;;;;;12.88;8.15;;;2.70;99.90;;;;;;2071494;28;20018;-68
2021/11/29 02:34:34;;;;;;;12.25;7.32;;;2.70;99.90;;;;;;2071591;28;20022;-68
2021/11/29 02:35:35;;;;;;;11.70;8.02;;;2.70;99.90;;;;;;2071067;28;20048;-68
2021/11/29 02:36:35;;;;;;;10.73;7.95;;;2.70;99.90;;;;;;2071270;28;20034;-68
2021/11/29 02:37:36;;;;;;;14.93;8.52;;;2.70;99.90;;;;;;2071332;28;20496;-68
2021/11/29 02:38:37;;;;;;;23.77;8.82;;;2.70;99.90;;;;;;2071371;28;20022;-68
2021/11/29 02:39:38;;;;;;;12.77;8.32;;;2.70;99.90;;;;;;2071416;28;20042;-68
2021/11/29 02:40:38;;;;;;;13.00;8.20;;;2.70;99.90;;;;;;2071167;28;20032;-68
2021/11/29 02:41:41;;;;;;;9.77;7.00;;;2.70;99.90;;;;;;2071039;28;20049;-68
2021/11/29 02:42:41;;;;;;;12.07;8.43;;;2.70;99.90;;;;;;2071232;28;20033;-68
2021/11/29 02:43:42;;;;;;;13.85;8.50;;;2.70;99.90;;;;;;2064962;28;20042;-68
2021/11/29 02:44:43;;;;;;;12.65;7.55;;;2.70;99.90;;;;;;2071445;28;20092;-68
2021/11/29 02:45:43;;;;;;;11.68;7.82;;;2.70;99.90;;;;;;2071020;28;20561;-68
2021/11/29 02:46:45;;;;;;;13.25;8.35;;;2.70;99.90;;;;;;2072545;28;20022;-68
2021/11/29 02:47:45;;;;;;;12.35;8.38;;;2.70;99.90;;;;;;2077194;28;20025;-68
2021/11/29 02:48:51;;;;;;;13.38;8.15;;;2.70;99.90;;;;;;2071768;28;20025;-68
2021/11/29 02:49:52;;;;;;;13.60;8.27;;;2.70;99.90;;;;;;2070920;28;20034;-68
2021/11/29 02:50:52;;;;;;;10.98;7.88;;;2.80;99.90;;;;;;2070785;28;20036;-68
2021/11/29 02:52:03;;;;;;;13.82;7.88;;;2.80;99.90;;;;;;2070956;28;20120;-68
2021/11/29 02:53:07;;;;;;;13.73;8.50;;;2.70;99.90;;;;;;2070985;28;20091;-68
2021/11/29 02:54:14;;;;;;;11.80;8.13;;;2.80;99.90;;;;;;2069948;28;20022;-68
2021/11/29 02:55:15;;;;;;;13.73;8.63;;;2.80;99.90;;;;;;2071309;28;20021;-68
2021/11/29 02:56:16;;;;;;;12.80;8.23;;;2.80;99.90;;;;;;2071201;28;20038;-68
2021/11/29 02:57:20;;;;;;;14.32;8.40;;;2.70;99.90;;;;;;2071528;28;20033;-68
2021/11/29 02:58:20;;;;;;;13.70;7.57;;;2.80;99.90;;;;;;2070940;28;20037;-68
2021/11/29 02:59:23;;;;;;;11.75;8.30;;;2.80;99.90;;;;;;2071455;28;20032;-68
2021/11/29 03:00:25;;;;;;;12.60;8.10;;;2.80;99.90;;;;;;2071117;28;20026;-68
2021/11/29 03:01:26;;;;;;;11.45;7.90;;;2.80;99.90;;;;;;2072605;28;20471;-68
2021/11/29 03:02:31;;;;;;;14.90;7.57;;;2.80;99.90;;;;;;2072410;28;20494;-68
2021/11/29 03:03:32;;;;;;;12.25;7.90;;;2.80;99.90;;;;;;2072575;28;20022;-68
2021/11/29 03:04:34;;;;;;;10.90;7.50;;;2.80;99.90;;;;;;2072265;28;20475;-68
2021/11/29 03:05:35;;;;;;;14.73;8.18;;;2.80;99.90;;;;;;2072654;28;20063;-68
2021/11/29 03:06:36;;;;;;;9.20;7.03;;;2.80;99.90;;;;;;2072573;28;20018;-68
2021/11/29 03:07:36;;;;;;;11.55;7.97;;;2.80;99.90;;;;;;2080050;28;20022;-68
2021/11/29 03:08:40;;;;;;;12.43;7.88;;;2.80;99.90;;;;;;2079977;28;20068;-68
2021/11/29 03:09:41;;;;;;;15.43;8.20;;;2.80;99.90;;;;;;2070837;28;20057;-68
2021/11/29 03:10:42;;;;;;;13.73;8.50;;;2.80;99.90;;;;;;2069429;28;20438;-68
2021/11/29 03:11:43;;;;;;;12.00;8.32;;;2.80;99.90;;;;;;2072304;28;20033;-68
2021/11/29 03:12:43;;;;;;;19.42;8.38;;;2.80;99.90;;;;;;2072160;28;20477;-68
2021/11/29 03:13:44;;;;;;;13.65;8.13;;;2.80;99.90;;;;;;2072858;28;20370;-68
2021/11/29 03:14:45;;;;;;;11.35;8.15;;;2.80;99.90;;;;;;2072431;28;20026;-68
2021/11/29 03:15:49;;;;;;;12.57;8.50;;;2.90;99.90;;;;;;2072568;28;20038;-68
2021/11/29 03:16:54;;;;;;;16.70;8.90;;;2.90;99.90;;;;;;2072343;28;20030;-68
2021/11/29 03:17:54;;;;;;;11.43;7.80;;;2.90;99.90;;;;;;2072895;28;20076;-68
2021/11/29 03:18:55;;;;;;;15.23;8.60;;;2.90;99.90;;;;;;2072039;28;20029;-68
2021/11/29 03:19:56;;;;;;;16.23;8.23;;;2.90;99.90;;;;;;2072658;28;20101;-68
2021/11/29 03:20:56;;;;;;;20.00;9.13;;;2.80;99.90;;;;;;2071259;28;20498;-68
2021/11/29 03:21:57;;;;;;;18.92;9.27;;;2.90;99.90;;;;;;2072596;28;20118;-68
2021/11/29 03:22:58;;;;;;;13.00;8.70;;;2.90;99.90;;;;;;2072397;28;20025;-68
2021/11/29 03:24:03;;;;;;;14.60;8.35;;;2.90;99.90;;;;;;2072771;28;20022;-68
2021/11/29 03:25:04;;;;;;;15.85;7.53;;;2.90;99.90;;;;;;2072320;28;20022;-68
2021/11/29 03:26:08;;;;;;;17.40;8.43;;;2.90;99.90;;;;;;2072772;28;20366;-68
2021/11/29 03:27:08;;;;;;;19.77;8.50;;;2.90;99.90;;;;;;2070561;28;20101;-68
2021/11/29 03:28:12;;;;;;;14.48;8.65;;;2.90;99.90;;;;;;2072541;28;20022;-68
2021/11/29 03:29:16;;;;;;;13.48;8.85;;;2.90;99.90;;;;;;2072545;28;20054;-68
2021/11/29 03:30:17;;;;;;;13.80;8.00;;;3.00;99.90;;;;;;2072212;28;20098;-68
2021/11/29 03:31:17;;;;;;;14.95;7.80;;;2.90;99.90;;;;;;2071810;28;20087;-68
2021/11/29 03:32:19;;;;;;;14.50;8.27;;;3.00;99.90;;;;;;2072593;28;20029;-68
2021/11/29 03:33:19;;;;;;;14.82;8.25;;;3.00;99.90;;;;;;2072379;28;20022;-68
2021/11/29 03:34:21;;;;;;;16.13;8.13;;;3.00;99.90;;;;;;2072619;28;20068;-68
2021/11/29 03:35:22;;;;;;;18.67;8.77;;;3.00;99.90;;;;;;2072153;28;20034;-68
2021/11/29 03:36:28;;;;;;;14.65;7.28;;;3.00;99.90;;;;;;2071716;28;20059;-68
2021/11/29 03:37:29;;;;;;;13.60;8.38;;;3.00;99.90;;;;;;2071900;28;20109;-68
2021/11/29 03:38:30;;;;;;;19.00;8.38;;;3.00;99.90;;;;;;2072439;28;20034;-68
2021/11/29 03:39:30;;;;;;;13.68;7.82;;;3.00;99.90;;;;;;2071966;28;20025;-69
2021/11/29 03:40:32;;;;;;;16.83;8.63;;;3.00;99.90;;;;;;2071972;28;20022;-68
2021/11/29 03:41:32;;;;;;;17.98;8.02;;;3.00;99.90;;;;;;2072658;28;20026;-68
2021/11/29 03:42:33;;;;;;;18.80;7.82;;;3.00;99.90;;;;;;2072461;28;20022;-68
2021/11/29 03:43:35;;;;;;;18.30;8.40;;;3.00;99.90;;;;;;2072546;28;20025;-68
2021/11/29 03:44:37;;;;;;;25.20;7.95;;;3.10;99.90;;;;;;2072351;28;20104;-68
2021/11/29 03:45:37;;;;;;;12.82;7.90;;;3.10;99.90;;;;;;2072624;28;20057;-68
2021/11/29 03:46:39;;;;;;;15.85;8.75;;;3.10;99.90;;;;;;2072945;28;20018;-69
2021/11/29 03:47:41;;;;;;;15.48;7.80;;;3.10;99.90;;;;;;2079112;28;20052;-69
2021/11/29 03:48:41;;;;;;;15.20;8.15;;;3.10;99.90;;;;;;2071965;28;20029;-68
2021/11/29 03:49:42;;;;;;;15.55;8.40;;;3.10;99.90;;;;;;2071788;28;20034;-68
2021/11/29 03:50:43;;;;;;;13.48;9.10;;;3.10;99.90;;;;;;2070767;28;20022;-69
2021/11/29 03:51:44;;;;;;;13.30;8.05;;;3.10;99.90;;;;;;2071962;28;20014;-68
2021/11/29 03:52:44;;;;;;;13.48;8.23;;;3.10;99.90;;;;;;2071644;28;20029;-68
2021/11/29 03:53:45;;;;;;;14.10;8.82;;;3.10;99.90;;;;;;2072022;28;20036;-68
2021/11/29 03:54:46;;;;;;;16.40;9.20;;;3.20;99.90;;;;;;2063598;28;20038;-68
2021/11/29 03:55:46;;;;;;;14.82;8.65;;;3.20;99.90;;;;;;2071693;28;20109;-68
2021/11/29 03:56:47;;;;;;;13.40;8.32;;;3.20;99.90;;;;;;2080012;28;20060;-69
2021/11/29 03:57:48;;;;;;;15.63;9.13;;;3.20;99.90;;;;;;2072650;28;20034;-68
2021/11/29 03:58:48;;;;;;;13.88;7.97;;;3.20;99.90;;;;;;2072081;28;20037;-68
2021/11/29 03:59:49;;;;;;;17.52;8.70;;;3.20;99.90;;;;;;2064470;28;20099;-68
2021/11/29 04:00:50;;;;;;;17.33;8.13;;;3.20;99.90;;;;;;2069648;28;20030;-68
2021/11/29 04:01:51;;;;;;;16.92;8.20;;;3.20;99.90;;;;;;2078271;28;20036;-68
2021/11/29 04:02:51;;;;;;;17.48;9.15;;;3.20;99.90;;;;;;2071918;28;20029;-69
2021/11/29 04:03:52;;;;;;;18.30;9.02;;;3.20;99.90;;;;;;2072408;28;20458;-69
2021/11/29 04:04:53;;;;;;;17.83;8.60;;;3.20;99.90;;;;;;2072927;28;20026;-68
2021/11/29 04:05:53;;;;;;;16.70;9.32;;;3.20;99.90;;;;;;2081920;28;20036;-68
2021/11/29 04:06:54;;;;;;;13.63;8.98;;;3.20;99.90;;;;;;2080013;28;20420;-68
2021/11/29 04:07:54;;;;;;;14.07;8.52;;;3.20;99.90;;;;;;2072074;28;20382;-68
2021/11/29 04:08:56;;;;;;;17.77;9.10;;;3.20;99.90;;;;;;2071981;28;20076;-68
2021/11/29 04:09:56;;;;;;;17.73;8.23;;;3.20;99.90;;;;;;2069259;28;20034;-68
2021/11/29 04:10:57;;;;;;;17.30;9.07;;;3.20;99.90;;;;;;2071280;28;20061;-69
2021/11/29 04:11:58;;;;;;;14.07;8.93;;;3.20;99.90;;;;;;2072853;28;20132;-69
2021/11/29 04:12:58;;;;;;;20.65;9.57;;;3.20;99.90;;;;;;2072284;28;20402;-68
2021/11/29 04:14:00;;;;;;;15.38;9.45;;;3.20;99.90;;;;;;2072298;28;20469;-69
2021/11/29 04:15:00;;;;;;;14.18;9.07;;;3.30;99.90;;;;;;2072642;28;20053;-69
2021/11/29 04:16:01;;;;;;;16.85;9.05;;;3.30;99.90;;;;;;2072421;28;20033;-69
2021/11/29 04:17:02;;;;;;;17.08;8.70;;;3.30;99.90;;;;;;2072279;28;20484;-69
2021/11/29 04:18:04;;;;;;;16.00;9.20;;;3.30;99.90;;;;;;2073627;28;20092;-69
2021/11/29 04:19:05;;;;;;;13.75;8.48;;;3.30;99.90;;;;;;2073970;28;20117;-68
2021/11/29 04:20:09;;;;;;;17.58;9.30;;;3.30;99.90;;;;;;2072206;28;20034;-69
2021/11/29 04:21:12;;;;;;;13.77;8.57;;;3.30;99.90;;;;;;2071972;28;20034;-68
2021/11/29 04:22:14;;;;;;;16.17;8.20;;;3.30;99.90;;;;;;2072127;28;20393;-69
2021/11/29 04:23:14;;;;;;;19.13;9.07;;;3.30;99.90;;;;;;2072930;28;20057;-68
2021/11/29 04:24:16;;;;;;;12.75;7.95;;;3.30;99.90;;;;;;2072347;28;20026;-68
2021/11/29 04:25:24;;;;;;;14.63;7.82;;;3.30;99.90;;;;;;2072464;28;20040;-68
2021/11/29 04:26:24;;;;;;;16.65;8.30;;;3.30;99.90;;;;;;2072268;28;20076;-68
2021/11/29 04:27:25;;;;;;;16.55;7.65;;;3.30;99.90;;;;;;2072225;28;20076;-68
2021/11/29 04:28:26;;;;;;;14.77;8.48;;;3.30;99.90;;;;;;2072220;28;20097;-69
2021/11/29 04:29:28;;;;;;;17.52;8.13;;;3.30;99.90;;;;;;2072874;28;20105;-68
2021/11/29 04:30:29;;;;;;;12.77;7.07;;;3.30;99.90;;;;;;2072143;28;20029;-68
2021/11/29 04:31:30;;;;;;;15.15;7.63;;;3.30;99.90;;;;;;2072363;28;20501;-68
2021/11/29 04:32:31;;;;;;;13.90;7.75;;;3.30;99.90;;;;;;2072224;28;20014;-68
2021/11/29 04:33:32;;;;;;;11.40;7.53;;;3.30;99.90;;;;;;2072123;28;20022;-68
2021/11/29 04:34:33;;;;;;;12.57;7.50;;;3.30;99.90;;;;;;2072301;28;20053;-68
2021/11/29 04:35:34;;;;;;;11.38;6.95;;;3.30;99.90;;;;;;2076948;28;20026;-68
2021/11/29 04:36:35;;;;;;;14.57;8.13;;;3.30;99.90;;;;;;2075301;28;20061;-68
2021/11/29 04:37:36;;;;;;;11.82;7.15;;;3.30;99.90;;;;;;2072497;28;20014;-68
2021/11/29 04:38:36;;;;;;;13.65;7.80;;;3.30;99.90;;;;;;2072052;28;20114;-69
2021/11/29 04:39:37;;;;;;;15.18;7.43;;;3.30;99.90;;;;;;2072428;28;20474;-68
2021/11/29 04:40:39;;;;;;;14.48;7.22;;;3.30;99.90;;;;;;2071511;28;20033;-68
2021/11/29 04:41:40;;;;;;;12.45;6.78;;;3.30;99.90;;;;;;2072435;28;20186;-68
2021/11/29 04:42:41;;;;;;;15.57;7.05;;;3.30;99.90;;;;;;2072512;28;20026;-68
2021/11/29 04:43:41;;;;;;;11.60;7.72;;;3.30;99.90;;;;;;2067994;28;20117;-68
2021/11/29 04:44:42;;;;;;;13.60;7.38;;;3.30;99.90;;;;;;2070002;28;20018;-68
2021/11/29 04:45:44;;;;;;;13.23;7.80;;;3.20;99.90;;;;;;2078160;28;20477;-68
2021/11/29 04:46:44;;;;;;;11.77;7.20;;;3.20;99.90;;;;;;2078726;28;20502;-68
2021/11/29 04:47:45;;;;;;;15.10;7.30;;;3.20;99.90;;;;;;2075157;28;21261;-69
2021/11/29 04:48:47;;;;;;;14.98;7.13;;;3.20;99.90;;;;;;2071720;28;20057;-68
2021/11/29 04:49:47;;;;;;;11.52;7.05;;;3.20;99.90;;;;;;2072528;28;20038;-68
2021/11/29 04:50:48;;;;;;;12.35;7.05;;;3.20;99.90;;;;;;2071357;28;20546;-68
2021/11/29 04:51:49;;;;;;;10.07;6.50;;;3.20;99.90;;;;;;2071114;28;20084;-68
2021/11/29 04:52:50;;;;;;;9.98;7.28;;;3.20;99.90;;;;;;2072574;28;20030;-68
2021/11/29 04:53:51;;;;;;;11.23;6.97;;;3.20;99.90;;;;;;2079306;28;20728;-68
2021/11/29 04:54:52;;;;;;;11.68;6.25;;;3.20;99.90;;;;;;2078775;28;20032;-68
2021/11/29 04:55:52;;;;;;;13.15;6.72;;;3.20;99.90;;;;;;2072491;28;20061;-68
2021/11/29 04:56:53;;;;;;;11.23;6.55;;;3.20;99.90;;;;;;2071917;28;20029;-68
2021/11/29 04:57:53;;;;;;;11.23;6.78;;;3.30;99.90;;;;;;2071991;28;20075;-68
2021/11/29 04:58:54;;;;;;;16.08;7.22;;;3.20;99.90;;;;;;2071819;28;20072;-68
2021/11/29 04:59:55;;;;;;;14.20;6.72;;;3.30;99.90;;;;;;2071920;28;20492;-68
2021/11/29 05:00:56;;;;;;;10.70;6.55;;;3.20;99.90;;;;;;2070793;28;20022;-68
2021/11/29 05:01:57;;;;;;;13.73;6.68;;;3.20;99.90;;;;;;2071548;28;20437;-68
2021/11/29 05:02:58;;;;;;;11.57;7.10;;;3.20;99.90;;;;;;2071107;28;20058;-68
2021/11/29 05:03:58;;;;;;;13.32;7.20;;;3.20;99.90;;;;;;2072227;28;20026;-68
2021/11/29 05:04:59;;;;;;;12.82;6.43;;;3.20;99.90;;;;;;2072227;28;20491;-69
2021/11/29 05:06:00;;;;;;;14.05;6.32;;;3.20;99.90;;;;;;2071686;28;20393;-69
2021/11/29 05:07:00;;;;;;;10.77;6.20;;;3.20;99.90;;;;;;2072288;28;20033;-68
2021/11/29 05:08:01;;;;;;;10.75;6.03;;;3.20;99.90;;;;;;2071341;28;20053;-68
2021/11/29 05:09:03;;;;;;;10.35;5.90;;;3.20;99.90;;;;;;2071513;28;20093;-68
2021/11/29 05:10:06;;;;;;;9.88;6.28;;;3.20;99.90;;;;;;2070731;28;20113;-68
2021/11/29 05:11:06;;;;;;;11.50;6.32;;;3.30;99.90;;;;;;2071427;28;20057;-68
2021/11/29 05:12:13;;;;;;;15.18;6.45;;;3.30;99.90;;;;;;2071652;28;20836;-69
2021/11/29 05:13:14;;;;;;;11.82;7.03;;;3.30;99.90;;;;;;2072284;28;20413;-68
2021/11/29 05:14:15;;;;;;;8.75;6.38;;;3.30;99.90;;;;;;2071907;28;20030;-68
2021/11/29 05:15:15;;;;;;;12.25;6.70;;;3.30;99.90;;;;;;2071615;28;20041;-68
2021/11/29 05:16:16;;;;;;;8.68;6.05;;;3.30;99.90;;;;;;2071533;28;20037;-68
2021/11/29 05:17:18;;;;;;;9.85;6.70;;;3.30;99.90;;;;;;2072369;28;20096;-68
2021/11/29 05:18:18;;;;;;;11.80;6.57;;;3.30;99.90;;;;;;2071401;28;20080;-68
2021/11/29 05:19:19;;;;;;;13.52;8.15;;;3.30;99.90;;;;;;2072267;28;20014;-68
2021/11/29 05:20:19;;;;;;;12.40;6.53;;;3.30;99.90;;;;;;2071615;28;20479;-68